Time;durP1;ratioP1;P1;durP2;ratioP2;P2;SDS_P1;SDS_P2;PMS_P1;PMS_P2;Temp;Humidity;BMP_temperature;BMP_pressure;BME280_temperature;BME280_humidity;BME280_pressure;Samples;Min_cycle;Max_cycle;Signal;HPM_P1;HPM_P2
2023/12/30 00:00:56;;;;;;;6.95;0.93;;;6.30;99.90;;;;;;5039899;28;20049;-81
2023/12/30 00:03:21;;;;;;;13.15;2.42;;;6.40;99.90;;;;;;5053488;28;20037;-79
2023/12/30 00:05:47;;;;;;;6.07;1.67;;;6.30;99.90;;;;;;5053451;28;20033;-79
2023/12/30 00:08:12;;;;;;;8.93;2.60;;;6.30;99.90;;;;;;5052912;28;20033;-79
2023/12/30 00:10:38;;;;;;;3.38;1.77;;;6.20;99.90;;;;;;5053094;28;20052;-79
2023/12/30 00:13:04;;;;;;;7.40;2.00;;;6.30;99.90;;;;;;5055549;28;20550;-79
2023/12/30 00:15:29;;;;;;;7.60;2.22;;;6.30;99.90;;;;;;5056681;28;20033;-79
2023/12/30 00:17:55;;;;;;;8.68;1.63;;;6.20;99.90;;;;;;5054239;28;20052;-79
2023/12/30 00:20:21;;;;;;;4.93;1.48;;;6.30;99.90;;;;;;5056212;28;20056;-79
2023/12/30 00:22:46;;;;;;;11.20;1.95;;;6.30;99.90;;;;;;5056219;28;20041;-80
2023/12/30 00:25:12;;;;;;;9.10;2.35;;;6.40;99.90;;;;;;5039782;28;20060;-79
2023/12/30 00:27:38;;;;;;;5.63;1.90;;;6.40;99.90;;;;;;5040287;28;20167;-80
2023/12/30 00:30:04;;;;;;;5.38;1.50;;;6.60;99.90;;;;;;5055703;28;20045;-79
2023/12/30 00:32:29;;;;;;;9.93;1.60;;;6.50;99.90;;;;;;5054305;28;20580;-79
2023/12/30 00:34:55;;;;;;;7.63;1.65;;;6.50;99.90;;;;;;5053929;28;20072;-80
2023/12/30 00:37:21;;;;;;;9.10;2.15;;;6.40;99.90;;;;;;5053977;28;20041;-80
2023/12/30 00:39:47;;;;;;;6.32;1.40;;;6.30;99.90;;;;;;5058104;28;20510;-79
2023/12/30 00:42:12;;;;;;;14.27;2.80;;;6.40;99.90;;;;;;5057865;28;20102;-79
2023/12/30 00:44:38;;;;;;;7.57;1.58;;;6.40;99.90;;;;;;5059217;28;20053;-79
2023/12/30 00:47:04;;;;;;;9.70;3.38;;;6.50;99.90;;;;;;5056901;28;20045;-79
2023/12/30 00:49:29;;;;;;;12.50;1.55;;;6.30;99.90;;;;;;5058837;28;20037;-80
2023/12/30 00:51:55;;;;;;;7.13;1.40;;;6.50;99.90;;;;;;5048673;28;20037;-79
2023/12/30 00:54:21;;;;;;;5.75;1.40;;;6.30;99.90;;;;;;5022846;28;20047;-80
2023/12/30 00:56:46;;;;;;;10.90;1.42;;;6.40;99.90;;;;;;5040230;28;20034;-79
2023/12/30 00:59:12;;;;;;;4.97;1.98;;;6.30;99.90;;;;;;5040472;28;20060;-79
2023/12/30 01:01:38;;;;;;;13.15;1.45;;;6.30;99.90;;;;;;5038806;28;20025;-80
2023/12/30 01:04:04;;;;;;;5.65;1.40;;;6.30;99.90;;;;;;5038017;28;20440;-79
2023/12/30 01:06:30;;;;;;;7.43;1.58;;;6.40;99.90;;;;;;5040240;28;20120;-79
2023/12/30 01:08:55;;;;;;;9.00;2.33;;;6.20;99.90;;;;;;5039805;28;20071;-79
2023/12/30 01:11:21;;;;;;;5.40;1.50;;;6.30;99.90;;;;;;5040589;28;20128;-81
2023/12/30 01:13:47;;;;;;;5.90;1.55;;;6.30;99.90;;;;;;5022990;28;20040;-79
2023/12/30 01:16:12;;;;;;;8.32;2.30;;;6.30;99.90;;;;;;5037759;28;20037;-79
2023/12/30 01:18:39;;;;;;;7.82;1.42;;;6.30;99.90;;;;;;5038947;28;20053;-79
2023/12/30 01:21:05;;;;;;;3.95;1.75;;;6.30;99.90;;;;;;5039572;28;20076;-79
2023/12/30 01:23:30;;;;;;;6.93;1.73;;;6.30;99.90;;;;;;5038175;28;20409;-79
2023/12/30 01:25:56;;;;;;;15.85;4.28;;;6.40;99.90;;;;;;5039079;28;20044;-79
2023/12/30 01:28:22;;;;;;;9.20;1.75;;;6.40;99.90;;;;;;5039020;28;20132;-79
2023/12/30 01:30:47;;;;;;;8.35;1.48;;;6.30;99.90;;;;;;5022269;28;20080;-79
2023/12/30 01:33:13;;;;;;;8.27;1.30;;;6.30;99.90;;;;;;5039332;28;20037;-80
2023/12/30 01:35:38;;;;;;;5.88;1.20;;;6.40;99.90;;;;;;5038183;28;20096;-80
2023/12/30 01:38:04;;;;;;;5.15;1.50;;;6.30;99.90;;;;;;5038628;28;20408;-79
2023/12/30 01:40:30;;;;;;;6.53;1.38;;;6.20;99.90;;;;;;5039241;28;20041;-79
2023/12/30 01:42:55;;;;;;;8.27;1.40;;;6.20;99.90;;;;;;5039052;28;20061;-80
2023/12/30 01:45:21;;;;;;;4.30;1.45;;;6.20;99.90;;;;;;5038242;28;20045;-79
2023/12/30 01:47:47;;;;;;;12.98;1.70;;;6.20;99.90;;;;;;5038104;28;20493;-79
2023/12/30 01:50:12;;;;;;;9.13;2.00;;;6.30;99.90;;;;;;5021120;28;20041;-79
2023/12/30 01:52:38;;;;;;;6.15;1.40;;;6.30;99.90;;;;;;5037729;28;20037;-80
2023/12/30 01:55:07;;;;;;;9.30;1.38;;;6.20;99.90;;;;;;5037445;28;20048;-80
2023/12/30 01:57:33;;;;;;;4.40;1.33;;;6.20;99.90;;;;;;5038042;28;20052;-79
2023/12/30 02:00:01;;;;;;;7.18;1.65;;;6.20;99.90;;;;;;5053238;28;20518;-80
2023/12/30 02:02:28;;;;;;;8.05;1.30;;;6.10;99.90;;;;;;5041022;28;20040;-79
2023/12/30 02:04:55;;;;;;;6.78;1.85;;;6.20;99.90;;;;;;5057440;28;20076;-79
2023/12/30 02:07:21;;;;;;;6.38;1.73;;;6.20;99.90;;;;;;5055841;28;20045;-79
2023/12/30 02:09:46;;;;;;;9.63;1.17;;;6.20;99.90;;;;;;5040349;28;20072;-79
2023/12/30 02:12:12;;;;;;;7.28;1.17;;;6.30;99.90;;;;;;5039352;28;20044;-79
2023/12/30 02:14:37;;;;;;;12.88;2.28;;;6.30;99.90;;;;;;5056456;28;20108;-79
2023/12/30 02:17:03;;;;;;;5.72;1.60;;;6.20;99.90;;;;;;5057070;28;20111;-80
2023/12/30 02:19:29;;;;;;;5.65;1.98;;;6.40;99.90;;;;;;5055395;28;20113;-80
2023/12/30 02:21:54;;;;;;;8.52;1.48;;;6.40;99.90;;;;;;5055199;28;20116;-80
2023/12/30 02:24:20;;;;;;;6.88;1.13;;;6.50;99.90;;;;;;5055089;28;20033;-79
2023/12/30 02:26:46;;;;;;;7.43;1.30;;;6.40;99.90;;;;;;5056330;28;20033;-80
2023/12/30 02:29:12;;;;;;;9.68;1.50;;;6.50;99.90;;;;;;5057805;28;20055;-80
2023/12/30 02:31:46;;;;;;;10.52;1.30;;;6.60;99.90;;;;;;5038824;28;20128;-80
2023/12/30 02:34:12;;;;;;;;;;;6.60;99.90;;;;;;5056263;28;20562;-80
2023/12/30 02:36:38;;;;;;;8.23;2.60;;;6.60;99.90;;;;;;5056723;28;19959;-79
2023/12/30 02:39:04;;;;;;;9.18;1.60;;;6.70;99.90;;;;;;5055443;28;20036;-80
2023/12/30 02:41:30;;;;;;;7.30;1.52;;;6.70;99.90;;;;;;5039925;28;20052;-80
2023/12/30 02:43:59;;;;;;;6.07;1.58;;;6.80;99.90;;;;;;5039612;28;20037;-80
2023/12/30 02:46:25;;;;;;;8.68;1.17;;;6.80;99.90;;;;;;5055675;28;20110;-80
2023/12/30 02:48:50;;;;;;;4.97;1.35;;;6.80;99.90;;;;;;5054786;28;20530;-80
2023/12/30 02:51:17;;;;;;;5.05;1.55;;;6.80;99.90;;;;;;5038223;28;20036;-79
2023/12/30 02:53:42;;;;;;;7.28;1.85;;;6.80;99.90;;;;;;5072053;22;20474;-74
2023/12/30 02:56:21;;;;;;;7.53;2.00;;;6.80;99.90;;;;;;5071727;28;20119;-74
2023/12/30 02:58:58;;;;;;;6.70;1.20;;;6.80;99.90;;;;;;5053968;28;20041;-74
2023/12/30 03:01:31;;;;;;;7.90;1.80;;;6.90;99.90;;;;;;5070266;28;20559;-74
2023/12/30 03:04:00;;;;;;;8.65;1.42;;;6.90;99.90;;;;;;5070957;28;20462;-74
2023/12/30 03:06:27;;;;;;;9.73;2.47;;;6.90;99.90;;;;;;5070673;28;20082;-74
2023/12/30 03:08:53;;;;;;;8.73;1.48;;;6.90;99.90;;;;;;5070804;28;20058;-74
2023/12/30 03:11:19;;;;;;;12.18;2.05;;;6.90;99.90;;;;;;5072190;28;20032;-74
2023/12/30 03:13:45;;;;;;;10.98;1.92;;;7.00;99.90;;;;;;5071867;28;20496;-74
2023/12/30 03:16:11;;;;;;;7.28;1.52;;;7.00;99.90;;;;;;5072070;28;20124;-74
2023/12/30 03:18:40;;;;;;;3.63;1.00;;;7.00;99.90;;;;;;5071696;28;20123;-74
2023/12/30 03:21:08;;;;;;;8.93;1.33;;;7.00;99.90;;;;;;5071914;28;20103;-74
2023/12/30 03:23:38;;;;;;;12.18;2.35;;;7.00;99.90;;;;;;5071629;28;20399;-74
2023/12/30 03:26:05;;;;;;;12.48;2.03;;;7.10;99.90;;;;;;5071640;28;20042;-74
2023/12/30 03:28:31;;;;;;;10.60;1.98;;;7.10;99.90;;;;;;5071774;28;20044;-74
2023/12/30 03:30:57;;;;;;;8.77;1.73;;;7.10;99.90;;;;;;5071893;28;20040;-74
2023/12/30 03:33:27;;;;;;;9.27;1.52;;;7.10;99.90;;;;;;5071695;28;20036;-74
2023/12/30 03:35:53;;;;;;;6.60;1.25;;;7.10;99.90;;;;;;5070341;28;20036;-74
2023/12/30 03:38:19;;;;;;;10.15;2.10;;;7.10;99.90;;;;;;5071542;28;20033;-74
2023/12/30 03:40:44;;;;;;;8.32;1.55;;;7.10;99.90;;;;;;5071863;28;20537;-74
2023/12/30 03:43:10;;;;;;;7.30;2.28;;;7.10;99.90;;;;;;5070263;28;20032;-74
2023/12/30 03:45:36;;;;;;;5.97;1.35;;;7.10;99.90;;;;;;5071691;28;20060;-74
2023/12/30 03:48:02;;;;;;;8.90;2.28;;;7.20;99.90;;;;;;5071298;28;20129;-74
2023/12/30 03:50:27;;;;;;;7.88;1.70;;;7.10;99.90;;;;;;5070227;28;20044;-74
2023/12/30 03:52:53;;;;;;;6.32;1.40;;;7.10;99.90;;;;;;5071476;28;20041;-74
2023/12/30 03:55:19;;;;;;;9.93;1.40;;;7.10;99.90;;;;;;5070475;28;20070;-73
2023/12/30 03:57:45;;;;;;;9.23;1.95;;;7.10;99.90;;;;;;5071107;28;20040;-74
2023/12/30 04:00:11;;;;;;;7.68;1.77;;;7.10;99.90;;;;;;5071585;28;20045;-74
2023/12/30 04:02:37;;;;;;;6.50;1.38;;;7.10;99.90;;;;;;5070305;28;20070;-74
2023/12/30 04:05:03;;;;;;;10.88;2.47;;;7.00;99.90;;;;;;5071281;28;20484;-74
2023/12/30 04:07:29;;;;;;;7.32;1.58;;;7.00;99.90;;;;;;5071095;28;20430;-74
2023/12/30 04:09:55;;;;;;;7.00;1.83;;;7.00;99.90;;;;;;5071579;28;20119;-74
2023/12/30 04:12:20;;;;;;;12.55;2.05;;;6.90;99.90;;;;;;5070722;28;20496;-74
2023/12/30 04:14:47;;;;;;;12.23;2.28;;;6.80;99.90;;;;;;5075382;28;20040;-74
2023/12/30 04:17:12;;;;;;;9.13;2.60;;;6.80;99.90;;;;;;5074988;28;20062;-74
2023/12/30 04:19:39;;;;;;;6.65;1.67;;;6.80;99.90;;;;;;5075129;28;20028;-74
2023/12/30 04:22:04;;;;;;;11.48;2.80;;;6.70;99.90;;;;;;5075395;28;20061;-74
2023/12/30 04:24:30;;;;;;;10.38;2.58;;;6.80;99.90;;;;;;5075360;28;20111;-74
2023/12/30 04:26:56;;;;;;;7.60;1.73;;;6.70;99.90;;;;;;5073975;28;20444;-74
2023/12/30 04:29:22;;;;;;;6.30;1.40;;;6.70;99.90;;;;;;5074983;28;20137;-74
2023/12/30 04:31:48;;;;;;;9.68;1.60;;;6.60;99.90;;;;;;5074941;28;20411;-74
2023/12/30 04:34:13;;;;;;;9.60;2.00;;;6.60;99.90;;;;;;5074800;28;20522;-74
2023/12/30 04:36:39;;;;;;;10.23;1.90;;;6.70;99.90;;;;;;5074947;28;20052;-74
2023/12/30 04:39:05;;;;;;;9.48;1.77;;;6.70;99.90;;;;;;5074745;28;20036;-74
2023/12/30 04:41:30;;;;;;;12.32;2.47;;;6.80;99.90;;;;;;5074966;28;20111;-74
2023/12/30 04:43:56;;;;;;;8.93;2.70;;;6.90;99.90;;;;;;5074712;28;20408;-74
2023/12/30 04:46:22;;;;;;;12.13;2.00;;;6.90;99.90;;;;;;5073710;28;20087;-74
2023/12/30 04:48:52;;;;;;;8.05;1.80;;;7.00;99.90;;;;;;5074560;28;20036;-74
2023/12/30 04:51:18;;;;;;;12.27;1.85;;;7.00;99.90;;;;;;5074888;28;20043;-74
2023/12/30 04:53:43;;;;;;;14.77;1.90;;;7.00;99.90;;;;;;5074514;28;20052;-73
2023/12/30 04:56:15;;;;;;;7.20;2.08;;;7.00;99.90;;;;;;5073528;28;20127;-73
2023/12/30 04:58:40;;;;;;;14.13;2.67;;;7.00;99.90;;;;;;5073235;28;20385;-74
2023/12/30 05:01:06;;;;;;;14.93;3.35;;;7.00;99.90;;;;;;5074583;28;20036;-74
2023/12/30 05:03:32;;;;;;;16.25;2.85;;;7.00;99.90;;;;;;5074417;28;20036;-74
2023/12/30 05:05:57;;;;;;;9.98;2.28;;;7.00;99.90;;;;;;5073145;28;20041;-73
2023/12/30 05:08:23;;;;;;;8.55;2.15;;;7.00;99.90;;;;;;5073340;28;20067;-73
2023/12/30 05:10:48;;;;;;;12.20;2.20;;;6.90;99.90;;;;;;5073122;28;20514;-73
2023/12/30 05:13:16;;;;;;;7.72;1.42;;;6.90;99.90;;;;;;5073173;28;20131;-73
2023/12/30 05:15:42;;;;;;;7.00;2.10;;;6.90;99.90;;;;;;5073214;28;20515;-73
2023/12/30 05:18:08;;;;;;;9.93;2.40;;;6.90;99.90;;;;;;5055799;28;20044;-73
2023/12/30 05:20:34;;;;;;;10.15;1.30;;;6.80;99.90;;;;;;5074332;28;20507;-73
2023/12/30 05:23:02;;;;;;;11.10;1.77;;;7.00;99.90;;;;;;5074264;28;20067;-74
2023/12/30 05:25:28;;;;;;;11.55;3.05;;;6.90;99.90;;;;;;5073474;28;20104;-74
2023/12/30 05:27:53;;;;;;;7.88;1.48;;;6.90;99.90;;;;;;5073833;28;20099;-74
2023/12/30 05:30:19;;;;;;;12.13;3.78;;;6.80;99.90;;;;;;5073964;28;20047;-74
2023/12/30 05:32:45;;;;;;;5.80;1.65;;;6.80;99.90;;;;;;5073851;28;20076;-74
2023/12/30 05:35:10;;;;;;;10.05;1.92;;;6.80;99.90;;;;;;5073897;28;20029;-74
2023/12/30 05:37:36;;;;;;;15.77;2.15;;;6.80;99.90;;;;;;5073672;28;20036;-74
2023/12/30 05:40:02;;;;;;;10.32;2.33;;;6.80;99.90;;;;;;5072811;28;20116;-74
2023/12/30 05:42:29;;;;;;;8.85;1.83;;;6.70;99.90;;;;;;5073742;28;20040;-74
2023/12/30 05:44:54;;;;;;;9.50;2.13;;;6.80;99.90;;;;;;5072450;28;20036;-75
2023/12/30 05:47:20;;;;;;;9.23;1.98;;;6.80;99.90;;;;;;5073195;28;20450;-74
2023/12/30 05:49:45;;;;;;;21.42;2.88;;;6.70;99.90;;;;;;5072417;28;20037;-74
2023/12/30 05:52:11;;;;;;;11.20;2.45;;;6.60;99.90;;;;;;5073609;28;20082;-74
2023/12/30 05:54:36;;;;;;;6.15;1.55;;;6.70;99.90;;;;;;5073736;28;20036;-74
2023/12/30 05:57:02;;;;;;;9.20;1.80;;;6.60;99.90;;;;;;5073432;28;20400;-74
2023/12/30 05:59:28;;;;;;;8.30;1.35;;;6.60;99.90;;;;;;5073511;28;20079;-74
2023/12/30 06:01:53;;;;;;;6.00;1.30;;;6.60;99.90;;;;;;5072411;28;20518;-74
2023/12/30 06:04:19;;;;;;;14.95;1.92;;;6.70;99.90;;;;;;5073464;28;20656;-74
2023/12/30 06:06:45;;;;;;;7.18;1.50;;;6.70;99.90;;;;;;5073341;28;20039;-74
2023/12/30 06:09:11;;;;;;;10.10;1.75;;;6.80;99.90;;;;;;5073148;28;20068;-75
2023/12/30 06:11:37;;;;;;;11.48;3.28;;;6.80;99.90;;;;;;5073200;28;20039;-74
2023/12/30 06:14:03;;;;;;;8.00;2.47;;;6.80;99.90;;;;;;5071813;28;20062;-74
2023/12/30 06:16:29;;;;;;;11.63;2.10;;;6.80;99.90;;;;;;5071882;28;20036;-74
2023/12/30 06:18:54;;;;;;;9.95;2.92;;;6.80;99.90;;;;;;5072989;28;20029;-74
2023/12/30 06:21:20;;;;;;;9.38;2.53;;;6.80;99.90;;;;;;5071684;28;20033;-74
2023/12/30 06:23:46;;;;;;;7.55;3.03;;;6.80;99.90;;;;;;5072951;28;20036;-74
2023/12/30 06:26:12;;;;;;;14.52;1.67;;;6.80;99.90;;;;;;5071478;28;20079;-74
2023/12/30 06:28:38;;;;;;;8.80;1.50;;;6.80;99.90;;;;;;5071332;28;20076;-74
2023/12/30 06:31:03;;;;;;;4.78;1.17;;;6.70;99.90;;;;;;5071625;28;20080;-74
2023/12/30 06:33:29;;;;;;;9.25;2.22;;;6.70;99.90;;;;;;5072819;28;20058;-74
2023/12/30 06:35:54;;;;;;;8.73;2.17;;;6.80;99.90;;;;;;5071973;28;20033;-74
2023/12/30 06:38:20;;;;;;;9.60;1.92;;;6.80;99.90;;;;;;5072335;28;20506;-75
2023/12/30 06:40:46;;;;;;;10.32;2.65;;;6.80;99.90;;;;;;5072573;28;20044;-74
2023/12/30 06:43:12;;;;;;;7.50;1.88;;;6.80;99.90;;;;;;5071278;28;20036;-74
2023/12/30 06:45:37;;;;;;;19.25;2.65;;;6.90;99.90;;;;;;5072323;28;20036;-74
2023/12/30 06:48:03;;;;;;;9.07;2.58;;;6.80;99.90;;;;;;5054413;28;20067;-74
2023/12/30 06:50:29;;;;;;;12.90;3.30;;;6.80;99.90;;;;;;5071323;28;20048;-74
2023/12/30 06:52:56;;;;;;;9.60;1.70;;;6.90;99.90;;;;;;5072234;28;20032;-74
2023/12/30 06:55:22;;;;;;;8.95;2.30;;;6.80;99.90;;;;;;5071230;28;20048;-74
2023/12/30 06:57:48;;;;;;;7.50;1.65;;;6.80;99.90;;;;;;5054212;28;20059;-74
2023/12/30 07:00:14;;;;;;;8.02;1.95;;;6.70;99.90;;;;;;5070945;28;20040;-74
2023/12/30 07:02:41;;;;;;;9.77;2.10;;;6.70;99.90;;;;;;5070856;28;20606;-74
2023/12/30 07:05:07;;;;;;;10.80;2.92;;;6.60;99.90;;;;;;5072320;28;20399;-74
2023/12/30 07:07:34;;;;;;;13.65;2.78;;;6.70;99.90;;;;;;5070758;28;20419;-74
2023/12/30 07:09:59;;;;;;;8.43;1.73;;;6.60;99.90;;;;;;5072113;28;20040;-74
2023/12/30 07:12:25;;;;;;;6.80;1.48;;;6.60;99.90;;;;;;5071930;28;20545;-74
2023/12/30 07:14:50;;;;;;;9.27;2.67;;;6.60;99.90;;;;;;5071863;28;20045;-74
2023/12/30 07:17:16;;;;;;;6.43;1.83;;;6.50;99.90;;;;;;5071615;28;20037;-74
2023/12/30 07:19:42;;;;;;;12.90;1.83;;;6.60;99.90;;;;;;5072082;28;20032;-74
2023/12/30 07:22:08;;;;;;;9.75;2.03;;;6.50;99.90;;;;;;5071925;28;20037;-74
2023/12/30 07:24:33;;;;;;;15.25;2.08;;;6.50;99.90;;;;;;5071806;28;20036;-74
2023/12/30 07:26:59;;;;;;;8.02;2.03;;;6.50;99.90;;;;;;5070450;28;20055;-74
2023/12/30 07:29:24;;;;;;;9.65;2.20;;;6.60;99.90;;;;;;5070249;28;20055;-74
2023/12/30 07:31:50;;;;;;;9.23;2.47;;;6.50;99.90;;;;;;5071974;28;20043;-74
2023/12/30 07:34:17;;;;;;;8.82;2.33;;;6.50;99.90;;;;;;5070381;28;20127;-74
2023/12/30 07:36:43;;;;;;;8.60;1.77;;;6.50;99.90;;;;;;5070243;28;20527;-74
2023/12/30 07:39:09;;;;;;;5.57;1.40;;;6.50;99.90;;;;;;5071639;28;20032;-73
2023/12/30 07:41:34;;;;;;;16.83;3.13;;;6.50;99.90;;;;;;5070280;28;20039;-73
2023/12/30 07:44:00;;;;;;;15.52;2.33;;;6.50;99.90;;;;;;5070087;28;20036;-73
2023/12/30 07:46:26;;;;;;;11.02;2.83;;;6.50;99.90;;;;;;5070196;28;20032;-74
2023/12/30 07:48:52;;;;;;;14.07;2.70;;;6.60;99.90;;;;;;5069997;28;20055;-73
2023/12/30 07:51:17;;;;;;;7.90;2.25;;;6.70;99.90;;;;;;5070129;28;20041;-73
2023/12/30 07:53:43;;;;;;;9.32;1.90;;;6.60;99.90;;;;;;5071206;28;20504;-73
2023/12/30 07:56:09;;;;;;;5.97;1.58;;;6.60;99.90;;;;;;5071198;28;20037;-73
2023/12/30 07:58:35;;;;;;;10.18;2.03;;;6.70;99.90;;;;;;5070988;28;20500;-73
2023/12/30 08:01:01;;;;;;;11.77;2.03;;;6.70;99.90;;;;;;5071613;28;20081;-73
2023/12/30 08:03:26;;;;;;;8.07;1.83;;;6.60;99.90;;;;;;5070054;28;20032;-73
2023/12/30 08:05:52;;;;;;;10.70;2.90;;;6.70;99.90;;;;;;5071387;28;20116;-74
2023/12/30 08:08:19;;;;;;;8.25;2.78;;;6.70;99.90;;;;;;5071208;28;20037;-73
2023/12/30 08:10:44;;;;;;;16.17;2.95;;;6.60;99.90;;;;;;5069973;28;20492;-73
2023/12/30 08:13:10;;;;;;;13.27;2.25;;;6.70;99.90;;;;;;5070081;28;20099;-73
2023/12/30 08:15:36;;;;;;;8.38;1.92;;;6.60;99.90;;;;;;5069934;28;20041;-73
2023/12/30 08:18:01;;;;;;;4.85;1.48;;;6.70;99.90;;;;;;5070988;28;20051;-73
2023/12/30 08:20:27;;;;;;;5.63;1.63;;;6.70;99.90;;;;;;5071375;28;20039;-74
2023/12/30 08:22:54;;;;;;;9.23;1.80;;;6.70;99.90;;;;;;5053431;28;20039;-73
2023/12/30 08:25:20;;;;;;;14.00;2.25;;;6.70;99.90;;;;;;5053189;28;20056;-74
2023/12/30 08:27:45;;;;;;;12.93;1.83;;;6.70;99.90;;;;;;5070761;28;20392;-73
2023/12/30 08:30:11;;;;;;;6.40;2.55;;;6.60;99.90;;;;;;5071361;28;20429;-73
2023/12/30 08:32:37;;;;;;;8.90;1.60;;;6.70;99.90;;;;;;5071050;28;20040;-73
2023/12/30 08:35:07;;;;;;;9.18;2.05;;;6.70;99.90;;;;;;5071019;28;20048;-73
2023/12/30 08:37:33;;;;;;;8.73;1.55;;;6.70;99.90;;;;;;5069517;28;20087;-74
2023/12/30 08:39:59;;;;;;;12.45;2.05;;;6.70;99.90;;;;;;5071055;28;20041;-74
2023/12/30 08:42:24;;;;;;;4.75;2.47;;;6.70;99.90;;;;;;5070793;28;20036;-73
2023/12/30 08:44:50;;;;;;;7.43;1.50;;;6.80;99.90;;;;;;5069939;28;20046;-74
2023/12/30 08:47:16;;;;;;;9.85;2.75;;;6.80;99.90;;;;;;5069094;28;20072;-74
2023/12/30 08:49:42;;;;;;;11.68;2.75;;;6.80;99.90;;;;;;5067758;28;20055;-73
2023/12/30 08:52:08;;;;;;;7.75;2.00;;;6.80;99.90;;;;;;5069346;28;20127;-74
2023/12/30 08:54:34;;;;;;;6.97;1.60;;;6.70;99.90;;;;;;5129824;22;20140;-78
2023/12/30 08:56:59;;;;;;;4.88;1.75;;;6.80;99.90;;;;;;5114090;28;20047;-81
2023/12/30 08:59:25;;;;;;;7.95;1.55;;;6.80;99.90;;;;;;5113082;28;20483;-79
2023/12/30 09:01:51;;;;;;;16.88;2.08;;;6.80;99.90;;;;;;5079972;28;20127;-78
2023/12/30 09:04:18;;;;;;;14.85;2.70;;;6.80;99.90;;;;;;5097354;28;20108;-79
2023/12/30 09:06:44;;;;;;;15.70;2.00;;;6.80;99.90;;;;;;5099408;28;20044;-78
2023/12/30 09:09:11;;;;;;;8.77;1.60;;;6.90;99.90;;;;;;5097201;28;20138;-78
2023/12/30 09:11:38;;;;;;;7.47;2.38;;;6.80;99.90;;;;;;5114650;28;20040;-78
2023/12/30 09:14:05;;;;;;;12.68;2.70;;;6.90;99.90;;;;;;5078739;28;20054;-78
2023/12/30 09:16:32;;;;;;;10.63;1.85;;;6.90;99.90;;;;;;5096790;28;20040;-78
2023/12/30 09:18:57;;;;;;;11.02;2.40;;;6.90;99.90;;;;;;5082811;28;20048;-78
2023/12/30 09:21:23;;;;;;;10.52;1.98;;;6.80;99.90;;;;;;5107124;28;20062;-80
2023/12/30 09:23:50;;;;;;;21.17;3.35;;;6.70;99.90;;;;;;5094703;28;20037;-77
2023/12/30 09:26:16;;;;;;;18.52;2.47;;;6.70;99.90;;;;;;5086784;28;20136;-77
2023/12/30 09:28:42;;;;;;;11.10;2.35;;;6.80;99.90;;;;;;5096280;28;20487;-74
2023/12/30 09:31:08;;;;;;;7.07;1.52;;;6.80;99.90;;;;;;5096197;28;20046;-74
2023/12/30 09:33:33;;;;;;;6.15;1.88;;;6.80;99.90;;;;;;5114509;28;20036;-74
2023/12/30 09:35:59;;;;;;;6.45;1.70;;;6.90;99.90;;;;;;5096662;28;20043;-74
2023/12/30 09:38:25;;;;;;;15.02;2.60;;;6.80;99.90;;;;;;5095857;28;20563;-73
2023/12/30 09:40:52;;;;;;;11.00;1.63;;;6.90;99.90;;;;;;5114425;28;20032;-73
2023/12/30 09:43:27;;;;;;;13.73;2.35;;;6.80;99.90;;;;;;5114088;28;20081;-74
2023/12/30 09:45:55;;;;;;;11.95;2.20;;;6.90;99.90;;;;;;5095967;28;20043;-74
2023/12/30 09:48:25;;;;;;;16.00;2.88;;;6.90;99.90;;;;;;5114062;28;20036;-74
2023/12/30 09:50:51;;;;;;;10.35;1.90;;;6.90;99.90;;;;;;5095915;28;20069;-74
2023/12/30 09:53:21;;;;;;;9.18;2.40;;;6.90;99.90;;;;;;5096053;28;20039;-75
2023/12/30 09:55:48;;;;;;;10.77;2.72;;;7.00;99.90;;;;;;5096215;28;20039;-74
2023/12/30 09:58:14;;;;;;;12.40;1.80;;;7.00;99.90;;;;;;5095682;28;20046;-75
2023/12/30 10:00:42;;;;;;;8.13;1.90;;;7.00;99.90;;;;;;5096241;28;20039;-74
2023/12/30 10:03:09;;;;;;;5.00;1.83;;;7.10;99.90;;;;;;5113982;28;20078;-75
2023/12/30 10:05:35;;;;;;;5.78;1.45;;;7.20;99.90;;;;;;5096078;28;20050;-74
2023/12/30 10:08:05;;;;;;;8.48;1.83;;;7.20;99.90;;;;;;5095539;28;20070;-74
2023/12/30 10:10:44;;;;;;;6.43;1.42;;;7.20;99.90;;;;;;5095337;28;20406;-74
2023/12/30 10:13:14;;;;;;;10.32;1.60;;;7.30;99.90;;;;;;5078502;28;20119;-74
2023/12/30 10:15:40;;;;;;;10.57;2.33;;;7.30;99.90;;;;;;5095259;28;20143;-74
2023/12/30 10:18:10;;;;;;;8.13;2.17;;;7.40;99.90;;;;;;5095007;28;20168;-74
2023/12/30 10:20:40;;;;;;;4.35;1.42;;;7.30;99.90;;;;;;5095137;28;20062;-74
2023/12/30 10:23:07;;;;;;;14.00;2.63;;;7.40;99.90;;;;;;5095142;28;20162;-74
2023/12/30 10:25:33;;;;;;;12.50;1.77;;;7.40;99.90;;;;;;5095192;28;20035;-74
2023/12/30 10:27:58;;;;;;;11.88;1.83;;;7.40;99.90;;;;;;5095319;28;20040;-73
2023/12/30 10:30:24;;;;;;;9.25;2.17;;;7.40;99.90;;;;;;5094989;28;20043;-73
2023/12/30 10:32:50;;;;;;;7.80;1.92;;;7.50;99.90;;;;;;5094883;28;20050;-74
2023/12/30 10:35:16;;;;;;;13.10;1.70;;;7.40;99.90;;;;;;5095026;28;20497;-73
2023/12/30 10:37:42;;;;;;;5.20;1.73;;;7.50;99.90;;;;;;5094698;28;20126;-74
2023/12/30 10:40:11;;;;;;;7.18;1.83;;;7.40;99.90;;;;;;5094714;28;20043;-72
2023/12/30 10:42:40;;;;;;;8.18;1.70;;;7.30;99.90;;;;;;5094001;28;20040;-75
2023/12/30 10:45:06;;;;;;;8.25;1.48;;;7.50;99.90;;;;;;5093891;28;20081;-71
2023/12/30 10:47:40;;;;;;;7.22;2.33;;;7.50;99.90;;;;;;5093261;28;20126;-72
2023/12/30 10:50:09;;;;;;;9.77;2.97;;;7.60;99.90;;;;;;5077321;28;20048;-72
2023/12/30 10:52:37;;;;;;;8.02;1.85;;;7.70;99.90;;;;;;5094162;28;20051;-72
2023/12/30 10:55:09;;;;;;;12.40;1.80;;;7.70;99.90;;;;;;5094132;28;20044;-72
2023/12/30 10:57:37;;;;;;;3.08;1.30;;;7.70;99.90;;;;;;5093894;28;20392;-72
2023/12/30 11:00:10;;;;;;;10.68;2.35;;;7.80;99.90;;;;;;5093724;28;20516;-73
2023/12/30 11:02:37;;;;;;;12.82;2.20;;;7.80;99.90;;;;;;5090199;28;20046;-73
2023/12/30 11:05:11;;;;;;;10.00;1.70;;;7.90;99.90;;;;;;5103507;28;20074;-74
2023/12/30 11:07:37;;;;;;;7.97;2.05;;;7.80;99.90;;;;;;5079612;28;20122;-74
2023/12/30 11:10:19;;;;;;;5.80;1.58;;;7.80;99.90;;;;;;5092417;28;20035;-73
2023/12/30 11:12:45;;;;;;;4.28;1.83;;;7.80;99.90;;;;;;5110694;28;20127;-74
2023/12/30 11:15:30;;;;;;;6.57;1.70;;;7.80;99.90;;;;;;5086692;28;20087;-73
2023/12/30 11:17:57;;;;;;;12.07;2.22;;;7.80;99.90;;;;;;5100519;28;20463;-73
2023/12/30 11:20:32;;;;;;;5.50;1.38;;;7.70;99.90;;;;;;5087913;28;20036;-73
2023/12/30 11:23:00;;;;;;;7.15;2.10;;;7.70;99.90;;;;;;5093081;28;20119;-73
2023/12/30 11:25:44;;;;;;;9.95;1.85;;;7.80;99.90;;;;;;5112006;28;20036;-73
2023/12/30 11:28:17;;;;;;;6.93;1.75;;;7.80;99.90;;;;;;5093402;28;20403;-73
2023/12/30 11:30:44;;;;;;;13.13;3.47;;;7.90;99.90;;;;;;5093758;28;20062;-73
2023/12/30 11:33:11;;;;;;;6.70;2.63;;;7.90;99.90;;;;;;5111966;28;20054;-72
2023/12/30 11:35:36;;;;;;;7.53;2.05;;;7.90;99.90;;;;;;5093726;28;20126;-73
2023/12/30 11:38:07;;;;;;;7.43;2.03;;;7.90;99.90;;;;;;5076371;28;20169;-73
2023/12/30 11:40:34;;;;;;;8.77;1.70;;;7.90;99.90;;;;;;5111885;28;20032;-73
2023/12/30 11:42:59;;;;;;;4.28;1.65;;;7.80;99.90;;;;;;5090247;28;20035;-72
2023/12/30 11:45:25;;;;;;;10.27;2.05;;;7.90;99.90;;;;;;5087257;28;20058;-73
2023/12/30 11:47:51;;;;;;;8.98;2.00;;;7.90;99.90;;;;;;5091386;28;20536;-73
2023/12/30 11:50:16;;;;;;;5.95;2.05;;;7.90;99.90;;;;;;5093345;28;20042;-72
2023/12/30 11:52:46;;;;;;;11.27;2.25;;;7.90;99.90;;;;;;5084704;28;20141;-73
2023/12/30 11:55:12;;;;;;;11.10;2.30;;;8.00;99.90;;;;;;5093566;28;20104;-73
2023/12/30 11:57:37;;;;;;;12.77;1.63;;;8.10;99.90;;;;;;5093226;28;20495;-73
2023/12/30 12:00:06;;;;;;;8.40;2.75;;;8.10;99.90;;;;;;5076636;28;20035;-73
2023/12/30 12:02:32;;;;;;;4.30;1.50;;;8.10;99.90;;;;;;5093315;28;20547;-75
2023/12/30 12:04:58;;;;;;;9.30;2.97;;;8.00;99.90;;;;;;5068046;28;20061;-75
2023/12/30 12:07:24;;;;;;;7.47;1.83;;;8.00;99.90;;;;;;5111576;28;20114;-75
2023/12/30 12:09:49;;;;;;;12.73;1.85;;;8.00;99.90;;;;;;5076770;28;20044;-75
2023/12/30 12:12:22;;;;;;;11.55;3.08;;;7.90;99.90;;;;;;5111897;28;20043;-75
2023/12/30 12:14:52;;;;;;;8.13;1.73;;;7.80;99.90;;;;;;5093571;28;20048;-76
2023/12/30 12:17:19;;;;;;;9.90;3.30;;;7.70;99.90;;;;;;5093425;28;20039;-74
2023/12/30 12:19:47;;;;;;;9.05;2.80;;;7.70;99.90;;;;;;5093254;28;20499;-74
2023/12/30 12:22:15;;;;;;;14.90;2.13;;;7.60;99.90;;;;;;5084961;28;20491;-74
2023/12/30 12:24:42;;;;;;;7.78;2.60;;;7.60;99.90;;;;;;5093616;28;20506;-75
2023/12/30 12:27:08;;;;;;;6.50;1.40;;;7.60;99.90;;;;;;5085737;28;20043;-74
2023/12/30 12:29:44;;;;;;;6.38;1.60;;;7.50;99.90;;;;;;5086679;28;20031;-73
2023/12/30 12:32:13;;;;;;;10.85;2.15;;;7.60;99.90;;;;;;5086042;28;20441;-75
2023/12/30 12:34:41;;;;;;;8.45;1.98;;;7.50;99.90;;;;;;5084288;28;20113;-75
2023/12/30 12:37:08;;;;;;;5.43;2.05;;;7.60;99.90;;;;;;5076679;28;20055;-75
2023/12/30 12:39:34;;;;;;;13.10;3.53;;;7.60;99.90;;;;;;5076928;28;20403;-75
2023/12/30 12:42:00;;;;;;;6.78;1.55;;;7.70;99.90;;;;;;5076292;28;20040;-75
2023/12/30 12:44:25;;;;;;;12.18;2.17;;;7.70;99.90;;;;;;5076700;28;20063;-76
2023/12/30 12:46:51;;;;;;;13.88;2.63;;;7.70;99.90;;;;;;5076863;28;20071;-76
2023/12/30 12:49:19;;;;;;;19.85;4.45;;;7.70;99.90;;;;;;5095072;28;20099;-76